createdAt,value
2017-03-03T00:00:24.870Z,0
2017-03-03T00:01:25.039Z,0
2017-03-03T00:02:25.460Z,0
2017-03-03T00:03:25.109Z,0
2017-03-03T00:04:25.114Z,0
2017-03-03T00:05:25.401Z,0
2017-03-03T00:06:25.167Z,0
2017-03-03T00:07:24.803Z,0
2017-03-03T00:08:24.816Z,0
2017-03-03T00:09:25.259Z,0
2017-03-03T00:10:25.522Z,0
2017-03-03T00:11:24.911Z,0
2017-03-03T00:12:24.915Z,0
2017-03-03T00:13:25.356Z,0
2017-03-03T00:14:24.980Z,0
2017-03-03T00:15:25.293Z,0
2017-03-03T00:16:25.433Z,0
2017-03-03T00:17:25.870Z,0
2017-03-03T00:18:25.107Z,0
2017-03-03T00:19:25.508Z,0
2017-03-03T00:20:25.825Z,0
2017-03-03T00:21:25.178Z,0
2017-03-03T00:22:25.990Z,0
2017-03-03T00:23:25.236Z,0
2017-03-03T00:24:25.287Z,0
2017-03-03T00:25:25.552Z,0
2017-03-03T00:26:26.094Z,0
2017-03-03T00:27:24.948Z,0
2017-03-03T00:28:25.766Z,0
2017-03-03T00:29:25.803Z,0
2017-03-03T00:30:26.065Z,0
2017-03-03T00:31:25.845Z,0
2017-03-03T00:32:25.874Z,0
2017-03-03T00:33:25.107Z,0
2017-03-03T00:34:25.940Z,0
2017-03-03T00:35:25.789Z,0
2017-03-03T00:36:26.368Z,0
2017-03-03T00:37:26.406Z,0
2017-03-03T00:38:26.022Z,0
2017-03-03T00:39:26.071Z,0
2017-03-03T00:40:26.732Z,0
2017-03-03T00:41:26.520Z,0
2017-03-03T00:42:26.141Z,0
2017-03-03T00:43:26.583Z,0
2017-03-03T00:44:26.587Z,0
2017-03-03T00:45:26.468Z,0
2017-03-03T00:46:26.661Z,0
2017-03-03T00:47:26.662Z,0
2017-03-03T00:48:25.538Z,0
2017-03-03T00:49:25.942Z,0
2017-03-03T00:50:26.636Z,0
2017-03-03T00:51:26.788Z,0
2017-03-03T00:52:26.017Z,0
2017-03-03T00:53:26.446Z,0
2017-03-03T00:54:25.706Z,0
2017-03-03T00:55:25.971Z,0
2017-03-03T00:56:26.532Z,0
2017-03-03T00:57:26.948Z,0
2017-03-03T00:58:26.988Z,0
2017-03-03T00:59:26.606Z,0
2017-03-03T01:00:26.894Z,0
2017-03-03T01:01:26.672Z,0
2017-03-03T01:02:26.308Z,0
2017-03-03T01:03:26.700Z,0
2017-03-03T01:04:26.732Z,0
2017-03-03T01:05:26.630Z,0
2017-03-03T01:06:26.787Z,0
2017-03-03T01:07:26.823Z,0
2017-03-03T01:08:27.235Z,0
2017-03-03T01:09:27.275Z,0
2017-03-03T01:10:27.154Z,0
2017-03-03T01:11:26.915Z,0
2017-03-03T01:12:26.567Z,0
2017-03-03T01:13:26.591Z,0
2017-03-03T01:14:27.017Z,0
2017-03-03T01:15:26.885Z,0
2017-03-03T01:16:26.659Z,0
2017-03-03T01:17:27.491Z,0
2017-03-03T01:18:27.125Z,0
2017-03-03T01:19:26.745Z,0
2017-03-03T01:20:27.813Z,0
2017-03-03T01:21:27.590Z,0
2017-03-03T01:22:26.823Z,0
2017-03-03T01:23:26.456Z,0
2017-03-03T01:24:27.270Z,0
2017-03-03T01:25:27.306Z,0
2017-03-03T01:26:26.950Z,0
2017-03-03T01:27:27.379Z,0
2017-03-03T01:28:27.383Z,0
2017-03-03T01:29:27.401Z,0
2017-03-03T01:30:27.462Z,0
2017-03-03T01:31:27.481Z,0
2017-03-03T01:32:27.106Z,0
2017-03-03T01:33:26.735Z,0
2017-03-03T01:34:27.543Z,0
2017-03-03T01:35:27.564Z,0
2017-03-03T01:36:27.606Z,0
2017-03-03T01:37:28.022Z,0
2017-03-03T01:38:27.267Z,0
2017-03-03T01:39:27.692Z,0
2017-03-03T01:40:28.112Z,0
2017-03-03T01:41:27.729Z,0
2017-03-03T01:42:27.761Z,0
2017-03-03T01:43:28.186Z,0
2017-03-03T01:44:27.415Z,0
2017-03-03T01:45:27.461Z,0
2017-03-03T01:46:27.724Z,0
2017-03-03T01:47:27.895Z,0
2017-03-03T01:48:27.930Z,0
2017-03-03T01:49:27.967Z,0
2017-03-03T01:50:28.360Z,0
2017-03-03T01:51:28.641Z,0
2017-03-03T01:52:27.635Z,0
2017-03-03T01:53:28.089Z,0
2017-03-03T01:54:28.084Z,0
2017-03-03T01:55:28.514Z,0
2017-03-03T01:56:27.988Z,0
2017-03-03T01:57:27.372Z,0
2017-03-03T01:58:28.193Z,0
2017-03-03T01:59:27.826Z,0
2017-03-03T02:00:28.643Z,0
2017-03-03T02:01:28.512Z,0
2017-03-03T02:02:28.308Z,0
2017-03-03T02:03:27.933Z,0
2017-03-03T02:04:27.970Z,0
2017-03-03T02:05:28.370Z,0
2017-03-03T02:06:28.274Z,0
2017-03-03T02:07:28.044Z,0
2017-03-03T02:08:28.065Z,0
2017-03-03T02:09:28.477Z,0
2017-03-03T02:10:28.539Z,0
2017-03-03T02:11:29.189Z,0
2017-03-03T02:12:28.952Z,0
2017-03-03T02:13:27.797Z,0
2017-03-03T02:14:28.213Z,0
2017-03-03T02:15:28.246Z,0
2017-03-03T02:16:28.919Z,0
2017-03-03T02:17:28.704Z,0
2017-03-03T02:18:28.341Z,0
2017-03-03T02:19:28.748Z,0
2017-03-03T02:20:28.394Z,0
2017-03-03T02:21:29.055Z,0
2017-03-03T02:22:29.228Z,0
2017-03-03T02:23:28.467Z,0
2017-03-03T02:24:29.277Z,0
2017-03-03T02:25:28.893Z,0
2017-03-03T02:26:29.198Z,0
2017-03-03T02:27:28.583Z,0
2017-03-03T02:28:29.012Z,0
2017-03-03T02:29:29.012Z,0
2017-03-03T02:30:28.645Z,0
2017-03-03T02:31:29.733Z,0
2017-03-03T02:32:29.099Z,0
2017-03-03T02:33:28.740Z,0
2017-03-03T02:34:28.747Z,0
2017-03-03T02:35:28.768Z,0
2017-03-03T02:36:29.462Z,0
2017-03-03T02:37:29.629Z,0
2017-03-03T02:38:29.251Z,0
2017-03-03T02:39:29.276Z,0
2017-03-03T02:40:28.912Z,0
2017-03-03T02:41:29.609Z,0
2017-03-03T02:42:29.369Z,0
2017-03-03T02:43:29.773Z,0
2017-03-03T02:44:29.811Z,0
2017-03-03T02:45:28.656Z,0
2017-03-03T02:46:29.712Z,0
2017-03-03T02:47:29.510Z,0
2017-03-03T02:48:29.121Z,0
2017-03-03T02:49:29.140Z,0
2017-03-03T02:50:29.180Z,0
2017-03-03T02:51:29.864Z,0
2017-03-03T02:52:29.637Z,0
2017-03-03T02:53:30.047Z,0
2017-03-03T02:54:29.694Z,0
2017-03-03T02:55:29.312Z,0
2017-03-03T02:56:29.980Z,0
2017-03-03T02:57:29.369Z,0
2017-03-03T02:58:29.386Z,0
2017-03-03T02:59:29.834Z,0
2017-03-03T03:00:29.440Z,0
2017-03-03T03:01:29.740Z,0
2017-03-03T03:02:30.309Z,0
2017-03-03T03:03:30.309Z,0
2017-03-03T03:04:29.557Z,0
2017-03-03T03:05:29.191Z,0
2017-03-03T03:06:29.860Z,0
2017-03-03T03:07:30.073Z,0
2017-03-03T03:08:29.657Z,0
2017-03-03T03:09:30.494Z,0
2017-03-03T03:10:30.127Z,0
2017-03-03T03:11:30.794Z,0
2017-03-03T03:12:30.562Z,0
2017-03-03T03:13:30.602Z,0
2017-03-03T03:14:30.218Z,0
2017-03-03T03:15:30.233Z,0
2017-03-03T03:16:29.863Z,0
2017-03-03T03:17:30.296Z,0
2017-03-03T03:18:30.729Z,0
2017-03-03T03:19:29.588Z,0
2017-03-03T03:20:30.386Z,0
2017-03-03T03:21:30.015Z,0
2017-03-03T03:22:30.832Z,0
2017-03-03T03:23:30.870Z,0
2017-03-03T03:24:30.893Z,0
2017-03-03T03:25:30.513Z,0
2017-03-03T03:26:30.506Z,0
2017-03-03T03:27:30.969Z,0
2017-03-03T03:28:30.180Z,0
2017-03-03T03:29:30.600Z,0
2017-03-03T03:30:30.653Z,0
2017-03-03T03:31:30.685Z,0
2017-03-03T03:32:31.091Z,0
2017-03-03T03:33:30.715Z,0
2017-03-03T03:34:31.148Z,0
2017-03-03T03:35:30.781Z,0
2017-03-03T03:36:31.214Z,0
2017-03-03T03:37:31.214Z,0
2017-03-03T03:38:31.255Z,0
2017-03-03T03:39:30.500Z,0
2017-03-03T03:40:30.504Z,0
2017-03-03T03:41:30.930Z,0
2017-03-03T03:42:31.607Z,0
2017-03-03T03:43:30.599Z,0
2017-03-03T03:44:31.402Z,0
2017-03-03T03:45:31.044Z,0
2017-03-03T03:46:31.048Z,0
2017-03-03T03:47:30.941Z,0
2017-03-03T03:48:30.710Z,0
2017-03-03T03:49:31.135Z,0
2017-03-03T03:50:31.183Z,0
2017-03-03T03:51:31.193Z,0
2017-03-03T03:52:31.865Z,0
2017-03-03T03:53:31.662Z,0
2017-03-03T03:54:31.679Z,0
2017-03-03T03:55:31.312Z,0
2017-03-03T03:56:31.336Z,0
2017-03-03T03:57:31.601Z,0
2017-03-03T03:58:31.382Z,0
2017-03-03T03:59:31.022Z,0
2017-03-03T04:00:31.051Z,0
2017-03-03T04:01:31.451Z,0
2017-03-03T04:02:30.957Z,0
2017-03-03T04:03:31.910Z,0
2017-03-03T04:04:31.939Z,0
2017-03-03T04:05:30.779Z,0
2017-03-03T04:06:31.592Z,0
2017-03-03T04:07:31.469Z,0
2017-03-03T04:08:32.057Z,0
2017-03-03T04:09:31.674Z,0
2017-03-03T04:10:32.106Z,0
2017-03-03T04:11:31.719Z,0
2017-03-03T04:12:32.411Z,0
2017-03-03T04:13:31.413Z,0
2017-03-03T04:14:31.818Z,0
2017-03-03T04:15:31.842Z,0
2017-03-03T04:16:31.855Z,0
2017-03-03T04:17:31.747Z,0
2017-03-03T04:18:31.521Z,0
2017-03-03T04:19:31.553Z,0
2017-03-03T04:20:31.177Z,0
2017-03-03T04:21:32.000Z,0
2017-03-03T04:22:31.868Z,0
2017-03-03T04:23:32.060Z,0
2017-03-03T04:24:32.081Z,0
2017-03-03T04:25:31.690Z,0
2017-03-03T04:26:32.121Z,0
2017-03-03T04:27:32.003Z,0
2017-03-03T04:28:31.807Z,0
2017-03-03T04:29:32.596Z,0
2017-03-03T04:30:32.237Z,0
2017-03-03T04:31:32.642Z,0
2017-03-03T04:32:32.539Z,0
2017-03-03T04:33:32.720Z,0
2017-03-03T04:34:32.728Z,0
2017-03-03T04:35:31.971Z,0
2017-03-03T04:36:32.418Z,0
2017-03-03T04:37:32.423Z,0
2017-03-03T04:38:32.833Z,0
2017-03-03T04:39:32.083Z,0
2017-03-03T04:40:32.884Z,0
2017-03-03T04:41:32.113Z,0
2017-03-03T04:42:32.942Z,0
2017-03-03T04:43:32.984Z,0
2017-03-03T04:44:33.001Z,0
2017-03-03T04:45:32.640Z,0
2017-03-03T04:46:32.665Z,0
2017-03-03T04:47:32.278Z,0
2017-03-03T04:48:34.184Z,0
2017-03-03T04:49:32.740Z,0
2017-03-03T04:50:33.165Z,0
2017-03-03T04:51:32.001Z,0
2017-03-03T04:52:32.801Z,0
2017-03-03T04:53:32.311Z,0
2017-03-03T04:54:32.856Z,0
2017-03-03T04:55:33.283Z,0
2017-03-03T04:56:32.921Z,0
2017-03-03T04:57:32.948Z,0
2017-03-03T04:58:33.222Z,0
2017-03-03T04:59:33.395Z,0
2017-03-03T05:00:33.036Z,0
2017-03-03T05:01:32.665Z,0
2017-03-03T05:02:33.092Z,0
2017-03-03T05:03:33.366Z,0
2017-03-03T05:04:33.526Z,0
2017-03-03T05:05:32.754Z,0
2017-03-03T05:06:33.188Z,0
2017-03-03T05:07:33.221Z,0
2017-03-03T05:08:33.086Z,0
2017-03-03T05:09:33.663Z,0
2017-03-03T05:10:32.903Z,0
2017-03-03T05:11:32.915Z,0
2017-03-03T05:12:32.939Z,0
2017-03-03T05:13:33.618Z,0
2017-03-03T05:14:33.801Z,0
2017-03-03T05:15:33.046Z,0
2017-03-03T05:16:33.055Z,0
2017-03-03T05:17:33.472Z,0
2017-03-03T05:18:33.361Z,0
2017-03-03T05:19:33.522Z,0
2017-03-03T05:20:33.542Z,0
2017-03-03T05:21:33.599Z,0
2017-03-03T05:22:32.804Z,0
2017-03-03T05:23:33.871Z,0
2017-03-03T05:24:34.053Z,0
2017-03-03T05:25:33.681Z,0
2017-03-03T05:26:33.322Z,0
2017-03-03T05:27:33.740Z,0
2017-03-03T05:28:33.229Z,0
2017-03-03T05:29:33.786Z,0
2017-03-03T05:30:33.810Z,0
2017-03-03T05:31:33.851Z,0
2017-03-03T05:32:33.880Z,0
2017-03-03T05:33:34.140Z,0
2017-03-03T05:34:33.918Z,0
2017-03-03T05:35:34.343Z,0
2017-03-03T05:36:33.568Z,0
2017-03-03T05:37:33.611Z,0
2017-03-03T05:38:33.872Z,0
2017-03-03T05:39:34.041Z,0
2017-03-03T05:40:34.473Z,0
2017-03-03T05:41:34.102Z,0
2017-03-03T05:42:34.147Z,0
2017-03-03T05:43:34.411Z,0
2017-03-03T05:44:34.192Z,0
2017-03-03T05:45:34.606Z,0
2017-03-03T05:46:33.838Z,0
2017-03-03T05:47:33.875Z,0
2017-03-03T05:48:34.946Z,0
2017-03-03T05:49:33.920Z,0
2017-03-03T05:50:33.937Z,4
2017-03-03T05:51:34.374Z,4
2017-03-03T05:52:33.626Z,0
2017-03-03T05:53:34.667Z,4
2017-03-03T05:54:33.653Z,4
2017-03-03T05:55:34.882Z,8
2017-03-03T05:56:34.894Z,8
2017-03-03T05:57:34.522Z,8
2017-03-03T05:58:34.803Z,8
2017-03-03T05:59:34.600Z,8
2017-03-03T06:00:34.616Z,12
2017-03-03T06:01:35.040Z,16
2017-03-03T06:02:34.699Z,20
2017-03-03T06:03:34.303Z,20
2017-03-03T06:04:34.723Z,24
2017-03-03T06:05:34.764Z,28
2017-03-03T06:06:34.769Z,28
2017-03-03T06:07:34.794Z,32
2017-03-03T06:08:34.827Z,36
2017-03-03T06:09:34.851Z,40
2017-03-03T06:10:34.876Z,44
2017-03-03T06:11:34.896Z,48
2017-03-03T06:12:35.330Z,52
2017-03-03T06:13:34.963Z,56
2017-03-03T06:14:34.975Z,60
2017-03-03T06:15:34.236Z,68
2017-03-03T06:16:35.445Z,72
2017-03-03T06:17:35.454Z,76
2017-03-03T06:18:35.527Z,80
2017-03-03T06:19:35.522Z,88
2017-03-03T06:20:35.134Z,96
2017-03-03T06:21:34.388Z,104
2017-03-03T06:22:35.593Z,108
2017-03-03T06:23:34.814Z,116
2017-03-03T06:24:35.911Z,120
2017-03-03T06:25:35.673Z,128
2017-03-03T06:26:34.900Z,140
2017-03-03T06:27:35.332Z,152
2017-03-03T06:28:35.749Z,168
2017-03-03T06:29:35.633Z,180
2017-03-03T06:30:35.395Z,192
2017-03-03T06:31:35.032Z,200
2017-03-03T06:32:35.064Z,216
2017-03-03T06:33:35.089Z,228
2017-03-03T06:34:36.153Z,236
2017-03-03T06:35:35.536Z,240
2017-03-03T06:36:35.580Z,240
2017-03-03T06:37:34.792Z,248
2017-03-03T06:38:34.833Z,256
2017-03-03T06:39:35.897Z,268
2017-03-03T06:40:35.270Z,280
2017-03-03T06:41:36.082Z,292
2017-03-03T06:42:36.117Z,312
2017-03-03T06:43:35.739Z,332
2017-03-03T06:44:36.017Z,348
2017-03-03T06:45:36.202Z,364
2017-03-03T06:46:35.437Z,376
2017-03-03T06:47:35.847Z,396
2017-03-03T06:48:35.895Z,416
2017-03-03T06:49:35.789Z,432
2017-03-03T06:50:35.953Z,444
2017-03-03T06:51:36.363Z,456
2017-03-03T06:52:36.378Z,460
2017-03-03T06:53:36.412Z,448
2017-03-03T06:54:36.316Z,436
2017-03-03T06:55:36.089Z,436
2017-03-03T06:56:36.492Z,456
2017-03-03T06:57:36.526Z,480
2017-03-03T06:58:35.756Z,508
2017-03-03T06:59:36.441Z,544
2017-03-03T07:00:35.833Z,572
2017-03-03T07:01:36.238Z,608
2017-03-03T07:02:35.859Z,628
2017-03-03T07:03:36.276Z,624
2017-03-03T07:04:36.192Z,628
2017-03-03T07:05:36.336Z,648
2017-03-03T07:06:35.991Z,676
2017-03-03T07:07:36.382Z,704
2017-03-03T07:08:35.632Z,704
2017-03-03T07:09:37.105Z,688
2017-03-03T07:10:36.472Z,672
2017-03-03T07:11:36.892Z,644
2017-03-03T07:12:36.133Z,628
2017-03-03T07:13:36.177Z,624
2017-03-03T07:14:37.224Z,636
2017-03-03T07:15:36.616Z,632
2017-03-03T07:16:36.261Z,644
2017-03-03T07:17:37.061Z,660
2017-03-03T07:18:37.083Z,684
2017-03-03T07:19:37.363Z,688
2017-03-03T07:20:36.755Z,708
2017-03-03T07:21:35.976Z,732
2017-03-03T07:22:36.005Z,772
2017-03-03T07:23:36.458Z,876
2017-03-03T07:24:37.114Z,920
2017-03-03T07:25:36.487Z,984
2017-03-03T07:26:36.900Z,1048
2017-03-03T07:27:36.933Z,1088
2017-03-03T07:28:36.945Z,1112
2017-03-03T07:29:37.240Z,1136
2017-03-03T07:30:36.999Z,1168
2017-03-03T07:31:37.039Z,1200
2017-03-03T07:32:36.273Z,1224
2017-03-03T07:33:36.689Z,1240
2017-03-03T07:34:37.370Z,1316
2017-03-03T07:35:37.142Z,1484
2017-03-03T07:36:37.167Z,1552
2017-03-03T07:37:36.811Z,1504
2017-03-03T07:38:37.241Z,1624
2017-03-03T07:39:37.910Z,1672
2017-03-03T07:40:36.891Z,1540
2017-03-03T07:41:37.310Z,1636
2017-03-03T07:42:37.341Z,1320
2017-03-03T07:43:37.352Z,1544
2017-03-03T07:44:37.661Z,1412
2017-03-03T07:45:37.830Z,1396
2017-03-03T07:46:37.451Z,1376
2017-03-03T07:47:37.084Z,1436
2017-03-03T07:48:37.508Z,1476
2017-03-03T07:49:37.785Z,1544
2017-03-03T07:50:36.762Z,1576
2017-03-03T07:51:37.978Z,1612
2017-03-03T07:52:37.216Z,1604
2017-03-03T07:53:37.633Z,1400
2017-03-03T07:54:37.941Z,1424
2017-03-03T07:55:37.690Z,1460
2017-03-03T07:56:37.319Z,1432
2017-03-03T07:57:37.335Z,1396
2017-03-03T07:58:37.363Z,1328
2017-03-03T07:59:38.452Z,1416
2017-03-03T08:00:37.842Z,1456
2017-03-03T08:01:37.850Z,1528
2017-03-03T08:02:37.875Z,1648
2017-03-03T08:03:37.508Z,1732
2017-03-03T08:04:38.584Z,1808
2017-03-03T08:05:37.553Z,1844
2017-03-03T08:06:38.374Z,1760
2017-03-03T08:07:38.022Z,1864
2017-03-03T08:08:38.041Z,1892
2017-03-03T08:09:38.716Z,1916
2017-03-03T08:10:38.489Z,1984
2017-03-03T08:11:37.717Z,1980
2017-03-03T08:12:38.543Z,2068
2017-03-03T08:13:38.167Z,2116
2017-03-03T08:14:38.460Z,2160
2017-03-03T08:15:38.237Z,2216
2017-03-03T08:16:38.249Z,2276
2017-03-03T08:17:38.698Z,2292
2017-03-03T08:18:38.327Z,2304
2017-03-03T08:19:38.191Z,2272
2017-03-03T08:20:38.760Z,2252
2017-03-03T08:21:37.993Z,2248
2017-03-03T08:22:38.434Z,2192
2017-03-03T08:23:38.455Z,2152
2017-03-03T08:24:39.123Z,2164
2017-03-03T08:25:38.097Z,2164
2017-03-03T08:26:38.533Z,2192
2017-03-03T08:27:38.558Z,2240
2017-03-03T08:28:38.983Z,2288
2017-03-03T08:29:39.252Z,2320
2017-03-03T08:30:38.271Z,2308
2017-03-03T08:31:38.668Z,2292
2017-03-03T08:32:38.293Z,2340
2017-03-03T08:33:38.334Z,2420
2017-03-03T08:34:39.417Z,2364
2017-03-03T08:35:38.368Z,2300
2017-03-03T08:36:38.799Z,2244
2017-03-03T08:37:38.833Z,2076
2017-03-03T08:38:38.857Z,1920
2017-03-03T08:39:39.140Z,1960
2017-03-03T08:40:39.336Z,2120
2017-03-03T08:41:38.936Z,2220
2017-03-03T08:42:38.570Z,2216
2017-03-03T08:43:39.386Z,2220
2017-03-03T08:44:38.226Z,2300
2017-03-03T08:45:38.656Z,2348
2017-03-03T08:46:39.112Z,2328
2017-03-03T08:47:39.100Z,2292
2017-03-03T08:48:38.765Z,2156
2017-03-03T08:49:39.155Z,2040
2017-03-03T08:50:39.225Z,2000
2017-03-03T08:51:39.212Z,2020
2017-03-03T08:52:39.636Z,2028
2017-03-03T08:53:39.661Z,2032
2017-03-03T08:54:38.884Z,1960
2017-03-03T08:55:39.998Z,2032
2017-03-03T08:56:39.351Z,2296
2017-03-03T08:57:38.984Z,2212
2017-03-03T08:58:39.001Z,2836
2017-03-03T08:59:38.633Z,2532
2017-03-03T09:00:38.914Z,2428
2017-03-03T09:01:39.875Z,2548
2017-03-03T09:02:39.500Z,2320
2017-03-03T09:03:39.952Z,3068
2017-03-03T09:04:39.568Z,3024
2017-03-03T09:05:39.445Z,2960
2017-03-03T09:06:38.829Z,2944
2017-03-03T09:07:40.035Z,2960
2017-03-03T09:08:39.680Z,2860
2017-03-03T09:09:39.716Z,2940
2017-03-03T09:10:39.566Z,2860
2017-03-03T09:11:39.746Z,2840
2017-03-03T09:12:40.171Z,2840
2017-03-03T09:13:40.210Z,2840
2017-03-03T09:14:40.243Z,2900
2017-03-03T09:15:40.506Z,2988
2017-03-03T09:16:39.898Z,3132
2017-03-03T09:17:39.531Z,3144
2017-03-03T09:18:39.543Z,3100
2017-03-03T09:19:39.569Z,2916
2017-03-03T09:20:40.648Z,2744
2017-03-03T09:21:39.239Z,2548
2017-03-03T09:22:40.051Z,2320
2017-03-03T09:23:40.083Z,2456
2017-03-03T09:24:39.320Z,2424
2017-03-03T09:25:39.997Z,2356
2017-03-03T09:26:40.574Z,2364
2017-03-03T09:27:40.199Z,2296
2017-03-03T09:28:39.819Z,2260
2017-03-03T09:29:40.272Z,2256
2017-03-03T09:30:40.517Z,2356
2017-03-03T09:31:40.297Z,2412
2017-03-03T09:32:40.722Z,2436
2017-03-03T09:33:40.747Z,2480
2017-03-03T09:34:40.026Z,2564
2017-03-03T09:35:39.888Z,2680
2017-03-03T09:36:40.034Z,2584
2017-03-03T09:37:40.474Z,2552
2017-03-03T09:38:40.086Z,2556
2017-03-03T09:39:40.524Z,2548
2017-03-03T09:40:40.813Z,2556
2017-03-03T09:41:40.605Z,2596
2017-03-03T09:42:40.605Z,2548
2017-03-03T09:43:39.843Z,2548
2017-03-03T09:44:41.072Z,2584
2017-03-03T09:45:39.907Z,2596
2017-03-03T09:46:40.313Z,2612
2017-03-03T09:47:40.349Z,2664
2017-03-03T09:48:40.762Z,2716
2017-03-03T09:49:40.387Z,2800
2017-03-03T09:50:40.825Z,2816
2017-03-03T09:51:40.448Z,2864
2017-03-03T09:52:40.498Z,2920
2017-03-03T09:53:40.116Z,3020
2017-03-03T09:54:40.934Z,3164
2017-03-03T09:55:41.382Z,3324
2017-03-03T09:56:41.380Z,3472
2017-03-03T09:57:41.414Z,3544
2017-03-03T09:58:40.673Z,3628
2017-03-03T09:59:40.286Z,3764
2017-03-03T10:00:41.507Z,3828
2017-03-03T10:01:41.132Z,3856
2017-03-03T10:02:41.549Z,3852
2017-03-03T10:03:40.377Z,3840
2017-03-03T10:04:41.223Z,3772
2017-03-03T10:05:41.634Z,3764
2017-03-03T10:06:41.271Z,3892
2017-03-03T10:07:41.721Z,3900
2017-03-03T10:08:41.729Z,4008
2017-03-03T10:09:41.354Z,4120
2017-03-03T10:10:41.787Z,4100
2017-03-03T10:11:41.809Z,4076
2017-03-03T10:12:40.682Z,4000
2017-03-03T10:13:41.477Z,4072
2017-03-03T10:14:41.090Z,4116
2017-03-03T10:15:41.510Z,4144
2017-03-03T10:16:40.994Z,4148
2017-03-03T10:17:41.176Z,4116
2017-03-03T10:18:40.833Z,4100
2017-03-03T10:19:42.022Z,4048
2017-03-03T10:20:41.266Z,4012
2017-03-03T10:21:41.932Z,3976
2017-03-03T10:22:41.324Z,3984
2017-03-03T10:23:42.133Z,4004
2017-03-03T10:24:42.182Z,4048
2017-03-03T10:25:41.819Z,4140
2017-03-03T10:26:41.678Z,4204
2017-03-03T10:27:42.260Z,4192
2017-03-03T10:28:41.487Z,4232
2017-03-03T10:29:41.905Z,4272
2017-03-03T10:30:41.938Z,4272
2017-03-03T10:31:42.605Z,4296
2017-03-03T10:32:41.599Z,4276
2017-03-03T10:33:41.640Z,4272
2017-03-03T10:34:41.657Z,4320
2017-03-03T10:35:42.066Z,4384
2017-03-03T10:36:42.751Z,4428
2017-03-03T10:37:42.139Z,4484
2017-03-03T10:38:42.143Z,4532
2017-03-03T10:39:42.177Z,4584
2017-03-03T10:40:41.822Z,4604
2017-03-03T10:41:42.887Z,4584
2017-03-03T10:42:42.272Z,4588
2017-03-03T10:43:42.296Z,4568
2017-03-03T10:44:42.313Z,4604
2017-03-03T10:45:41.949Z,4592
2017-03-03T10:46:43.026Z,4632
2017-03-03T10:47:42.407Z,4712
2017-03-03T10:48:42.444Z,4776
2017-03-03T10:49:42.504Z,4700
2017-03-03T10:50:42.085Z,4756
2017-03-03T10:51:43.170Z,4716
2017-03-03T10:52:42.557Z,4684
2017-03-03T10:53:42.581Z,4664
2017-03-03T10:54:43.000Z,4652
2017-03-03T10:55:42.652Z,4604
2017-03-03T10:56:42.909Z,4568
2017-03-03T10:57:42.687Z,4544
2017-03-03T10:58:43.119Z,4596
2017-03-03T10:59:42.740Z,4628
2017-03-03T11:00:42.772Z,4684
2017-03-03T11:01:43.050Z,4720
2017-03-03T11:02:42.427Z,4744
2017-03-03T11:03:42.470Z,4812
2017-03-03T11:04:43.271Z,4844
2017-03-03T11:05:42.957Z,4920
2017-03-03T11:06:43.577Z,4956
2017-03-03T11:07:42.199Z,4984
2017-03-03T11:08:43.885Z,4952
2017-03-03T11:09:43.028Z,4944
2017-03-03T11:10:43.460Z,4972
2017-03-03T11:11:43.321Z,4892
2017-03-03T11:12:42.322Z,4960
2017-03-03T11:13:43.127Z,5060
2017-03-03T11:14:42.363Z,5140
2017-03-03T11:15:43.194Z,5132
2017-03-03T11:16:43.873Z,5144
2017-03-03T11:17:42.844Z,5168
2017-03-03T11:18:43.290Z,5216
2017-03-03T11:19:43.287Z,5248
2017-03-03T11:20:43.324Z,5300
2017-03-03T11:21:44.016Z,5336
2017-03-03T11:22:43.393Z,5268
2017-03-03T11:23:43.018Z,5288
2017-03-03T11:24:42.659Z,5132
2017-03-03T11:25:43.072Z,5124
2017-03-03T11:26:43.752Z,5112
2017-03-03T11:27:43.937Z,5072
2017-03-03T11:28:43.958Z,5028
2017-03-03T11:29:43.195Z,4960
2017-03-03T11:30:44.012Z,4920
2017-03-03T11:31:43.900Z,4880
2017-03-03T11:32:43.693Z,4852
2017-03-03T11:33:43.689Z,4792
2017-03-03T11:34:43.752Z,4708
2017-03-03T11:35:43.361Z,4648
2017-03-03T11:36:43.645Z,4560
2017-03-03T11:37:43.021Z,4476
2017-03-03T11:38:43.841Z,4432
2017-03-03T11:39:43.868Z,4400
2017-03-03T11:40:43.891Z,4364
2017-03-03T11:41:43.783Z,4376
2017-03-03T11:42:43.962Z,4596
2017-03-03T11:43:43.968Z,5008
2017-03-03T11:44:44.402Z,5704
2017-03-03T11:45:43.635Z,6416
2017-03-03T11:46:44.715Z,7044
2017-03-03T11:47:43.720Z,7956
2017-03-03T11:48:43.740Z,8312
2017-03-03T11:49:43.765Z,8312
2017-03-03T11:50:43.774Z,7924
2017-03-03T11:51:44.455Z,7748
2017-03-03T11:52:44.240Z,7712
2017-03-03T11:53:44.254Z,7400
2017-03-03T11:54:43.900Z,7504
2017-03-03T11:55:44.711Z,7724
2017-03-03T11:56:44.198Z,8644
2017-03-03T11:57:44.765Z,8192
2017-03-03T11:58:44.799Z,7804
2017-03-03T11:59:44.429Z,8616
2017-03-03T12:00:44.865Z,9240
2017-03-03T12:01:44.718Z,7724
2017-03-03T12:02:44.507Z,7676
2017-03-03T12:03:44.532Z,7864
2017-03-03T12:04:44.964Z,8428
2017-03-03T12:05:44.213Z,9392
2017-03-03T12:06:44.885Z,10844
2017-03-03T12:07:45.063Z,10744
2017-03-03T12:08:44.688Z,11184
2017-03-03T12:09:45.124Z,11268
2017-03-03T12:10:44.733Z,9992
2017-03-03T12:11:43.977Z,9536
2017-03-03T12:12:45.206Z,8600
2017-03-03T12:13:44.845Z,8472
2017-03-03T12:14:45.256Z,8272
2017-03-03T12:15:44.871Z,10348
2017-03-03T12:16:45.330Z,24544
2017-03-03T12:17:44.949Z,17240
2017-03-03T12:18:45.370Z,8908
2017-03-03T12:19:45.004Z,9200
2017-03-03T12:20:45.052Z,15576
2017-03-03T12:21:44.658Z,15724
2017-03-03T12:22:45.330Z,17452
2017-03-03T12:23:45.514Z,15540
2017-03-03T12:24:45.138Z,13032
2017-03-03T12:25:45.184Z,12168
2017-03-03T12:26:45.193Z,11576
2017-03-03T12:27:45.502Z,10800
2017-03-03T12:28:44.859Z,10396
2017-03-03T12:29:45.683Z,9996
2017-03-03T12:30:45.323Z,9808
2017-03-03T12:31:45.335Z,9624
2017-03-03T12:32:45.225Z,9836
2017-03-03T12:33:45.400Z,9972
2017-03-03T12:34:45.049Z,11392
2017-03-03T12:35:45.074Z,12200
2017-03-03T12:36:45.107Z,13240
2017-03-03T12:37:45.763Z,13304
2017-03-03T12:38:45.938Z,12696
2017-03-03T12:39:45.983Z,12008
2017-03-03T12:40:46.006Z,10736
2017-03-03T12:41:44.856Z,10868
2017-03-03T12:42:46.340Z,10384
2017-03-03T12:43:45.697Z,9920
2017-03-03T12:44:45.321Z,10084
2017-03-03T12:45:45.751Z,9796
2017-03-03T12:46:45.783Z,9508
2017-03-03T12:47:45.662Z,9040
2017-03-03T12:48:45.433Z,8304
2017-03-03T12:49:46.267Z,8520
2017-03-03T12:50:45.518Z,8368
2017-03-03T12:51:45.916Z,8364
2017-03-03T12:52:46.603Z,7972
2017-03-03T12:53:46.388Z,7824
2017-03-03T12:54:45.609Z,7632
2017-03-03T12:55:46.026Z,7344
2017-03-03T12:56:45.683Z,7388
2017-03-03T12:57:46.744Z,7200
2017-03-03T12:58:46.119Z,7052
2017-03-03T12:59:45.360Z,7120
2017-03-03T13:00:46.190Z,7360
2017-03-03T13:01:46.223Z,7492
2017-03-03T13:02:45.691Z,7688
2017-03-03T13:03:46.665Z,7972
2017-03-03T13:04:46.333Z,8136
2017-03-03T13:05:46.321Z,8324
2017-03-03T13:06:46.742Z,8112
2017-03-03T13:07:46.623Z,7892
2017-03-03T13:08:46.432Z,7896
2017-03-03T13:09:46.081Z,7980
2017-03-03T13:10:46.469Z,8200
2017-03-03T13:11:46.114Z,8472
2017-03-03T13:12:47.195Z,8812
2017-03-03T13:13:46.564Z,9116
2017-03-03T13:14:46.989Z,9188
2017-03-03T13:15:46.612Z,9404
2017-03-03T13:16:46.661Z,10028
2017-03-03T13:17:46.922Z,10180
2017-03-03T13:18:46.299Z,10632
2017-03-03T13:19:46.724Z,10084
2017-03-03T13:20:46.404Z,9744
2017-03-03T13:21:46.385Z,9416
2017-03-03T13:22:46.419Z,8820
2017-03-03T13:23:46.851Z,8576
2017-03-03T13:24:47.276Z,8324
2017-03-03T13:25:47.297Z,8100
2017-03-03T13:26:46.926Z,8012
2017-03-03T13:27:46.966Z,7912
2017-03-03T13:28:47.019Z,7756
2017-03-03T13:29:47.035Z,7740
2017-03-03T13:30:46.648Z,7512
2017-03-03T13:31:47.081Z,7232
2017-03-03T13:32:46.734Z,7204
2017-03-03T13:33:47.534Z,7016
2017-03-03T13:34:47.171Z,6948
2017-03-03T13:35:47.596Z,6776
2017-03-03T13:36:47.629Z,6656
2017-03-03T13:37:47.255Z,6908
2017-03-03T13:38:46.486Z,7084
2017-03-03T13:39:46.522Z,7236
2017-03-03T13:40:47.735Z,7420
2017-03-03T13:41:46.987Z,7340
2017-03-03T13:42:47.401Z,7168
2017-03-03T13:43:48.082Z,6936
2017-03-03T13:44:47.073Z,6688
2017-03-03T13:45:47.102Z,6616
2017-03-03T13:46:47.511Z,6572
2017-03-03T13:47:47.553Z,6704
2017-03-03T13:48:47.829Z,6768
2017-03-03T13:49:47.611Z,6920
2017-03-03T13:50:47.639Z,7056
2017-03-03T13:51:48.060Z,7104
2017-03-03T13:52:48.097Z,7212
2017-03-03T13:53:48.377Z,7380
2017-03-03T13:54:48.151Z,7548
2017-03-03T13:55:46.999Z,7468
2017-03-03T13:56:47.035Z,7220
2017-03-03T13:57:47.456Z,6960